General Juan N Alvarez International Airport
MMAA : now visible

Airfield :











YOU CAN JOIN US ON...

 
LOGIN :

Register | Disclaimer

   EN    FR    IT 

 









Legend :    VFR   Marginal VFR   IFR   Intensive IFR   Very Intensive IFR
Visi :
Ceiling :
>= 8 km
>= 3000ft
5 to 8 km
1000 to 3000 ft
1500m to 5 km
500 to 1000 ft
800 to 1500m
200 to 500 ft
< 800m
< 200 ft
Symbols :   Thunderstorms  Fog  Heavy snow  Heavy precipitations  Wind > 20 kt






- Airport Elevation : 16 ft
- IATA code : ACA


MMAA - General Juan N Alvarez International

CURRENT METAR :
  • 031644Z 02004KT 8SM FEW100 SCT300 29/22 A2992 RMK 8/032 HZY ISOL CU

EXPIRED METARs :
  • 031545Z 34004KT 8SM FEW100 SCT300 29/21 A2993 RMK 8/032 HZY
  • 031446Z 33006KT 8SM FEW100 SCT300 26/21 A2995 RMK SLP137 52022 921 8/032 HZY SC

TAF TAF MMAA
Valid from the 03 at 12:00 until the 04 at 18:00 UTC


031000Z 0312/0418 00000KT 6SM HZ SCT015 BKN090 BKN300 TX33/0318Z TN27/0312Z
FM031800 05010KT P6SM SCT015 BKN100
TEMPO 0321/0401 5SM RA VC TS SCT015CB OVC100
FM040300 06005KT 6SM HZ SCT015 BKN100
FM041600 06010KT P6SM SCT015 SCT300
MMFR FIR / North America



MET'MAP, your aeronautical weather chart ! - Copyright ORBIFLY December 2007 - Disclaimer

ORBIFLY MET'MAP TEAM :

Programming & Development : Alexandra Zaïnal
Concept & original design : Baudouin d'Aumeries
Assistance for programming : Marc-Olivier Méhu
Technical & hardware support : Manuel Goepfert

Contact : metmap@orbifly.com




SOURCES & CREDITS :

   NOAA       Earth
Advisory